createdAt,value
2018-07-17T00:00:07.166Z,1003.24
2018-07-17T00:01:16.448Z,1003.22
2018-07-17T00:02:20.755Z,1003.24
2018-07-17T00:03:26.701Z,1003.25
2018-07-17T00:04:27.733Z,1003.26
2018-07-17T00:05:32.757Z,1003.28
2018-07-17T00:06:44.234Z,1003.25
2018-07-17T00:07:47.170Z,1003.29
2018-07-17T00:08:52.029Z,1003.24
2018-07-17T00:09:53.164Z,1003.26
2018-07-17T00:11:02.182Z,1003.23
2018-07-17T00:12:08.433Z,1003.28
2018-07-17T00:13:12.126Z,1003.29
2018-07-17T00:14:28.108Z,1003.28
2018-07-17T00:15:29.173Z,1003.29
2018-07-17T00:17:31.405Z,1003.28
2018-07-17T00:18:52.097Z,1003.29
2018-07-17T00:20:54.567Z,1003.28
2018-07-17T00:22:02.254Z,1003.29
2018-07-17T00:22:58.166Z,1003.28
2018-07-17T00:24:06.466Z,1003.29
2018-07-17T00:25:15.894Z,1003.29
2018-07-17T00:26:15.593Z,1003.28
2018-07-17T00:27:21.234Z,1003.30
2018-07-17T00:29:35.376Z,1003.28
2018-07-17T00:30:33.336Z,1003.27
2018-07-17T00:31:44.812Z,1003.25
2018-07-17T00:32:51.683Z,1003.25
2018-07-17T00:35:09.716Z,1003.28
2018-07-17T00:36:05.425Z,1003.27
2018-07-17T00:37:08.297Z,1003.26
2018-07-17T00:38:17.006Z,1003.23
2018-07-17T00:39:26.230Z,1003.22
2018-07-17T00:40:31.461Z,1003.22
2018-07-17T00:41:30.544Z,1003.21
2018-07-17T00:42:39.972Z,1003.21
2018-07-17T00:43:57.081Z,1003.21
2018-07-17T00:44:54.936Z,1003.22
2018-07-17T00:45:59.451Z,1003.19
2018-07-17T00:47:00.376Z,1003.19
2018-07-17T00:49:17.594Z,1003.22
2018-07-17T00:50:25.390Z,1003.16
2018-07-17T00:51:27.437Z,1003.18
2018-07-17T00:52:24.272Z,1003.15
2018-07-17T00:53:29.656Z,1003.15
2018-07-17T00:54:36.673Z,1003.13
2018-07-17T00:55:49.787Z,1003.13
2018-07-17T00:56:53.789Z,1003.13
2018-07-17T00:58:01.885Z,1003.12
2018-07-17T00:59:07.523Z,1003.14
2018-07-17T01:00:06.198Z,1003.12
2018-07-17T01:01:13.796Z,1003.13
2018-07-17T01:02:22.701Z,1003.10
2018-07-17T01:03:28.645Z,1003.08
2018-07-17T01:04:33.362Z,1003.10
2018-07-17T01:05:32.755Z,1003.08
2018-07-17T01:06:44.435Z,1003.06
2018-07-17T01:07:50.074Z,1003.05
2018-07-17T01:09:00.833Z,1003.07
2018-07-17T01:09:58.795Z,1003.08
2018-07-17T01:11:18.461Z,1003.03
2018-07-17T01:12:11.400Z,1003.01
2018-07-17T01:13:20.832Z,1002.98
2018-07-17T01:16:35.491Z,1002.96
2018-07-17T01:17:39.083Z,1002.95
2018-07-17T01:18:53.719Z,1002.91
2018-07-17T01:19:56.214Z,1002.95
2018-07-17T01:20:58.868Z,1002.95
2018-07-17T01:21:59.589Z,1002.91
2018-07-17T01:23:10.452Z,1002.91
2018-07-17T01:24:09.845Z,1002.93
2018-07-17T01:25:19.582Z,1002.88
2018-07-17T01:27:27.478Z,1002.90
2018-07-17T01:28:34.210Z,1002.88
2018-07-17T01:29:37.425Z,1002.91
2018-07-17T01:30:42.656Z,1002.92
2018-07-17T01:31:59.762Z,1002.86
2018-07-17T01:33:02.329Z,1002.88
2018-07-17T01:34:06.122Z,1002.88
2018-07-17T01:35:06.437Z,1002.91
2018-07-17T01:37:20.492Z,1002.89
2018-07-17T01:38:28.613Z,1002.86
2018-07-17T01:39:34.829Z,1002.86
2018-07-17T01:40:30.023Z,1002.87
2018-07-17T01:41:31.873Z,1002.88
2018-07-17T01:42:46.523Z,1002.88
2018-07-17T01:43:51.751Z,1002.91
2018-07-17T01:44:54.728Z,1002.89
2018-07-17T01:45:59.649Z,1002.90
2018-07-17T01:47:07.648Z,1002.93
2018-07-17T01:48:12.878Z,1002.93
2018-07-17T01:50:26.000Z,1002.87
2018-07-17T01:51:33.272Z,1002.84
2018-07-17T01:52:34.814Z,1002.86
2018-07-17T01:53:43.013Z,1002.85
2018-07-17T01:54:51.214Z,1002.84
2018-07-17T01:55:54.393Z,1002.88
2018-07-17T01:56:55.321Z,1002.83
2018-07-17T01:58:11.098Z,1002.83
2018-07-17T02:00:23.506Z,1002.85
2018-07-17T02:01:25.147Z,1002.83
2018-07-17T02:02:33.449Z,1002.86
2018-07-17T02:03:38.371Z,1002.82
2018-07-17T02:04:41.189Z,1002.83
2018-07-17T02:05:41.461Z,1002.82
2018-07-17T02:06:58.230Z,1002.82
2018-07-17T02:07:59.702Z,1002.82
2018-07-17T02:09:02.677Z,1002.84
2018-07-17T02:10:04.526Z,1002.86
2018-07-17T02:11:14.054Z,1002.86
2018-07-17T02:13:24.409Z,1002.90
2018-07-17T02:15:42.865Z,1002.90
2018-07-17T02:16:39.996Z,1002.88
2018-07-17T02:19:53.431Z,1002.86
2018-07-17T02:21:15.556Z,1002.88
2018-07-17T02:22:13.310Z,1002.90
2018-07-17T02:23:13.726Z,1002.87
2018-07-17T02:25:29.100Z,1002.85
2018-07-17T02:27:44.063Z,1002.89
2018-07-17T02:29:56.059Z,1002.92
2018-07-17T02:30:45.211Z,1002.88
2018-07-17T02:32:02.215Z,1002.89
2018-07-17T02:33:00.789Z,1002.90
2018-07-17T02:34:09.295Z,1002.91
2018-07-17T02:35:09.203Z,1002.88
2018-07-17T02:37:29.077Z,1002.88
2018-07-17T02:40:38.216Z,1002.87
2018-07-17T02:41:48.878Z,1002.90
2018-07-17T02:42:57.478Z,1002.88
2018-07-17T02:44:02.503Z,1002.87
2018-07-17T02:45:02.398Z,1002.91
2018-07-17T02:47:13.400Z,1002.92
2018-07-17T02:48:47.248Z,1002.89
2018-07-17T02:49:29.877Z,1002.90
2018-07-17T02:50:25.788Z,1002.88
2018-07-17T02:51:51.804Z,1002.90
2018-07-17T02:52:43.723Z,1002.93
2018-07-17T02:53:58.473Z,1002.89
2018-07-17T02:55:04.816Z,1002.89
2018-07-17T02:56:05.044Z,1002.90
2018-07-17T02:58:14.402Z,1002.91
2018-07-17T02:59:34.732Z,1002.91
2018-07-17T03:00:32.401Z,1002.90
2018-07-17T03:01:20.232Z,1002.92
2018-07-17T03:02:47.681Z,1002.94
2018-07-17T03:03:35.921Z,1002.86
2018-07-17T03:04:51.216Z,1002.91
2018-07-17T03:05:54.686Z,1002.93
2018-07-17T03:07:26.009Z,1002.94
2018-07-17T03:07:59.080Z,1002.93
2018-07-17T03:09:00.623Z,1002.96
2018-07-17T03:10:44.054Z,1002.97
2018-07-17T03:11:12.930Z,1002.94
2018-07-17T03:12:13.144Z,1002.96
2018-07-17T03:14:42.129Z,1002.95
2018-07-17T03:15:28.725Z,1002.91
2018-07-17T03:16:38.155Z,1002.93
2018-07-17T03:17:55.257Z,1002.92
2018-07-17T03:19:16.763Z,1002.93
2018-07-17T03:21:16.780Z,1002.91
2018-07-17T03:22:09.007Z,1002.91
2018-07-17T03:23:29.494Z,1002.93
2018-07-17T03:24:21.204Z,1002.90
2018-07-17T03:25:30.021Z,1002.93
2018-07-17T03:26:31.665Z,1002.93
2018-07-17T03:27:50.103Z,1002.89
2018-07-17T03:28:47.142Z,1002.94
2018-07-17T03:31:10.914Z,1002.93
2018-07-17T03:32:05.187Z,1002.93
2018-07-17T03:32:55.256Z,1002.93
2018-07-17T03:34:08.421Z,1002.96
2018-07-17T03:35:37.670Z,1002.93
2018-07-17T03:36:34.530Z,1002.93
2018-07-17T03:38:47.414Z,1002.96
2018-07-17T03:39:42.418Z,1002.96
2018-07-17T03:41:03.211Z,1002.96
2018-07-17T03:41:40.414Z,1002.98
2018-07-17T03:44:05.068Z,1003.03
2018-07-17T03:45:11.109Z,1003.00
2018-07-17T03:46:06.418Z,1003.02
2018-07-17T03:47:22.286Z,1003.05
2018-07-17T03:48:33.351Z,1003.04
2018-07-17T03:49:39.500Z,1003.05
2018-07-17T03:50:45.417Z,1003.04
2018-07-17T03:52:44.949Z,1003.01
2018-07-17T03:53:49.357Z,1003.01
2018-07-17T03:55:06.636Z,1003.00
2018-07-17T03:56:10.673Z,1003.00
2018-07-17T03:59:20.113Z,1002.99
2018-07-17T04:00:34.662Z,1002.97
2018-07-17T04:01:22.685Z,1002.97
2018-07-17T04:02:29.655Z,1002.97
2018-07-17T04:03:50.422Z,1002.96
2018-07-17T04:04:54.584Z,1003.02
2018-07-17T04:06:49.448Z,1002.97
2018-07-17T04:08:11.880Z,1002.96
2018-07-17T04:08:58.473Z,1002.96
2018-07-17T04:10:21.005Z,1002.97
2018-07-17T04:11:15.996Z,1003.00
2018-07-17T04:12:14.167Z,1002.97
2018-07-17T04:13:27.820Z,1002.98
2018-07-17T04:16:54.327Z,1003.02
2018-07-17T04:17:58.534Z,1003.01
2018-07-17T04:19:01.917Z,1003.06
2018-07-17T04:20:08.171Z,1003.05
2018-07-17T04:21:16.165Z,1003.07
2018-07-17T04:22:40.135Z,1003.10
2018-07-17T04:23:46.182Z,1003.07
2018-07-17T04:24:32.297Z,1003.07
2018-07-17T04:25:34.318Z,1003.06
2018-07-17T04:26:43.846Z,1003.05
2018-07-17T04:27:37.607Z,1003.05
2018-07-17T04:28:38.740Z,1003.03
2018-07-17T04:30:05.833Z,1003.07
2018-07-17T04:32:05.488Z,1003.05
2018-07-17T04:33:18.708Z,1003.04
2018-07-17T04:34:10.216Z,1003.02
2018-07-17T04:35:21.892Z,1003.03
2018-07-17T04:36:40.536Z,1003.06
2018-07-17T04:37:43.408Z,1003.09
2018-07-17T04:38:31.511Z,1003.07
2018-07-17T04:39:58.477Z,1003.04
2018-07-17T04:40:54.694Z,1003.10
2018-07-17T04:43:16.415Z,1003.13
2018-07-17T04:44:10.303Z,1003.15
2018-07-17T04:45:11.207Z,1003.12
2018-07-17T04:47:19.824Z,1003.18
2018-07-17T04:48:38.662Z,1003.24
2018-07-17T04:49:38.063Z,1003.24
2018-07-17T04:50:41.144Z,1003.30
2018-07-17T04:51:52.412Z,1003.30
2018-07-17T04:52:52.729Z,1003.32
2018-07-17T04:53:57.651Z,1003.30
2018-07-17T04:55:21.004Z,1003.29
2018-07-17T04:55:56.229Z,1003.31
2018-07-17T04:57:21.230Z,1003.32
2018-07-17T04:58:11.193Z,1003.33
2018-07-17T04:59:14.066Z,1003.33
2018-07-17T05:00:18.477Z,1003.39
2018-07-17T05:01:41.933Z,1003.45
2018-07-17T05:02:44.197Z,1003.47
2018-07-17T05:04:06.113Z,1003.49
2018-07-17T05:04:44.002Z,1003.56
2018-07-17T05:05:58.446Z,1003.55
2018-07-17T05:06:54.972Z,1003.59
2018-07-17T05:08:06.951Z,1003.62
2018-07-17T05:09:15.058Z,1003.66
2018-07-17T05:10:13.322Z,1003.64
2018-07-17T05:11:21.112Z,1003.63
2018-07-17T05:13:39.866Z,1003.60
2018-07-17T05:14:42.841Z,1003.68
2018-07-17T05:15:41.413Z,1003.61
2018-07-17T05:16:58.544Z,1003.58
2018-07-17T05:18:20.340Z,1003.58
2018-07-17T05:19:13.444Z,1003.56
2018-07-17T05:22:13.321Z,1003.56
2018-07-17T05:23:32.663Z,1003.59
2018-07-17T05:24:20.899Z,1003.60
2018-07-17T05:27:44.157Z,1003.60
2018-07-17T05:28:47.133Z,1003.61
2018-07-17T05:29:57.686Z,1003.56
2018-07-17T05:31:00.560Z,1003.59
2018-07-17T05:32:07.636Z,1003.56
2018-07-17T05:33:10.608Z,1003.57
2018-07-17T05:35:14.082Z,1003.54
2018-07-17T05:36:17.701Z,1003.56
2018-07-17T05:38:30.509Z,1003.50
2018-07-17T05:39:43.329Z,1003.52
2018-07-17T05:40:47.452Z,1003.48
2018-07-17T05:43:03.407Z,1003.50
2018-07-17T05:44:06.076Z,1003.51
2018-07-17T05:45:09.462Z,1003.52
2018-07-17T05:46:06.089Z,1003.53
2018-07-17T05:47:24.733Z,1003.50
2018-07-17T05:48:21.769Z,1003.57
2018-07-17T05:49:35.705Z,1003.55
2018-07-17T05:50:40.833Z,1003.59
2018-07-17T05:52:47.501Z,1003.58
2018-07-17T05:55:07.279Z,1003.62
2018-07-17T05:56:06.259Z,1003.62
2018-07-17T05:57:08.621Z,1003.63
2018-07-17T05:58:06.579Z,1003.62
2018-07-17T05:59:17.749Z,1003.60
2018-07-17T06:01:32.508Z,1003.65
2018-07-17T06:03:45.731Z,1003.71
2018-07-17T06:05:51.812Z,1003.71
2018-07-17T06:06:52.109Z,1003.74
2018-07-17T06:08:09.107Z,1003.78
2018-07-17T06:09:17.004Z,1003.79
2018-07-17T06:10:17.841Z,1003.81
2018-07-17T06:11:21.314Z,1003.87
2018-07-17T06:14:48.368Z,1003.86
2018-07-17T06:15:41.422Z,1003.87
2018-07-17T06:16:50.540Z,1003.88
2018-07-17T06:17:51.458Z,1003.88
2018-07-17T06:18:59.311Z,1003.93
2018-07-17T06:20:05.604Z,1003.88
2018-07-17T06:21:15.850Z,1003.96
2018-07-17T06:22:18.418Z,1003.92
2018-07-17T06:23:30.509Z,1003.90
2018-07-17T06:24:32.666Z,1003.90
2018-07-17T06:25:33.799Z,1003.89
2018-07-17T06:26:39.953Z,1003.93
2018-07-17T06:27:42.005Z,1003.92
2018-07-17T06:28:57.780Z,1003.91
2018-07-17T06:30:05.980Z,1003.90
2018-07-17T06:31:03.326Z,1003.94
2018-07-17T06:32:17.461Z,1003.95
2018-07-17T06:33:13.686Z,1003.99
2018-07-17T06:35:32.126Z,1004.03
2018-07-17T06:37:38.284Z,1004.04
2018-07-17T06:38:50.388Z,1004.05
2018-07-17T06:39:53.247Z,1004.05
2018-07-17T06:40:52.128Z,1004.11
2018-07-17T06:41:58.277Z,1004.07
2018-07-17T06:43:06.476Z,1004.06
2018-07-17T06:45:14.683Z,1004.10
2018-07-17T06:46:24.835Z,1004.15
2018-07-17T06:47:37.127Z,1004.15
2018-07-17T06:48:42.660Z,1004.09
2018-07-17T06:49:48.868Z,1004.11
2018-07-17T06:51:51.383Z,1004.15
2018-07-17T06:52:52.106Z,1004.12
2018-07-17T06:55:10.758Z,1004.18
2018-07-17T06:56:04.723Z,1004.19
2018-07-17T06:57:35.552Z,1004.15
2018-07-17T06:59:36.693Z,1004.16
2018-07-17T07:00:48.886Z,1004.18
2018-07-17T07:01:38.449Z,1004.12
2018-07-17T07:02:53.508Z,1004.21
2018-07-17T07:04:54.645Z,1004.17
2018-07-17T07:05:56.087Z,1004.17
2018-07-17T07:06:57.376Z,1004.16
2018-07-17T07:08:32.760Z,1004.11
2018-07-17T07:09:13.719Z,1004.17
2018-07-17T07:12:39.134Z,1004.24
2018-07-17T07:14:51.130Z,1004.30
2018-07-17T07:17:13.056Z,1004.29
2018-07-17T07:18:13.885Z,1004.28
2018-07-17T07:20:08.983Z,1004.29
2018-07-17T07:21:37.047Z,1004.27
2018-07-17T07:22:54.358Z,1004.30
2018-07-17T07:24:21.910Z,1004.29
2018-07-17T07:26:59.201Z,1004.32
2018-07-17T07:28:13.487Z,1004.30
2018-07-17T07:30:38.150Z,1004.27
2018-07-17T07:31:13.254Z,1004.27
2018-07-17T07:33:57.506Z,1004.25
2018-07-17T07:38:02.756Z,1004.28
2018-07-17T07:39:20.784Z,1004.27
2018-07-17T07:40:05.751Z,1004.29
2018-07-17T07:41:18.853Z,1004.29
2018-07-17T07:42:05.650Z,1004.27
2018-07-17T07:44:16.109Z,1004.35
2018-07-17T07:45:44.492Z,1004.33
2018-07-17T07:48:39.482Z,1004.33
2018-07-17T07:50:44.615Z,1004.29
2018-07-17T07:51:47.701Z,1004.26
2018-07-17T07:52:52.513Z,1004.28
2018-07-17T07:54:04.708Z,1004.28
2018-07-17T07:55:06.769Z,1004.25
2018-07-17T07:56:13.015Z,1004.26
2018-07-17T07:57:25.727Z,1004.27
2018-07-17T07:58:22.156Z,1004.27
2018-07-17T08:00:31.495Z,1004.30
2018-07-17T08:01:39.267Z,1004.29
2018-07-17T08:02:34.356Z,1004.31
2018-07-17T08:03:49.456Z,1004.31
2018-07-17T08:04:51.058Z,1004.27
2018-07-17T08:05:57.519Z,1004.31
2018-07-17T08:07:02.551Z,1004.30
2018-07-17T08:08:06.931Z,1004.32
2018-07-17T08:09:16.892Z,1004.34
2018-07-17T08:10:26.013Z,1004.33
2018-07-17T08:12:34.425Z,1004.36
2018-07-17T08:13:44.261Z,1004.32
2018-07-17T08:14:41.196Z,1004.33
2018-07-17T08:15:50.317Z,1004.30
2018-07-17T08:16:58.309Z,1004.29
2018-07-17T08:17:56.477Z,1004.32
2018-07-17T08:19:10.715Z,1004.33
2018-07-17T08:20:08.472Z,1004.30
2018-07-17T08:21:16.503Z,1004.30
2018-07-17T08:22:39.002Z,1004.32
2018-07-17T08:23:35.830Z,1004.33
2018-07-17T08:24:48.636Z,1004.33
2018-07-17T08:26:42.506Z,1004.33
2018-07-17T08:27:55.313Z,1004.34
2018-07-17T08:28:55.217Z,1004.34
2018-07-17T08:29:55.330Z,1004.38
2018-07-17T08:31:02.297Z,1004.33
2018-07-17T08:32:09.512Z,1004.38
2018-07-17T08:33:28.326Z,1004.34
2018-07-17T08:34:22.388Z,1004.36
2018-07-17T08:35:38.904Z,1004.32
2018-07-17T08:36:51.893Z,1004.33
2018-07-17T08:37:36.642Z,1004.31
2018-07-17T08:38:49.960Z,1004.34
2018-07-17T08:39:53.865Z,1004.32
2018-07-17T08:40:51.819Z,1004.30
2018-07-17T08:42:04.822Z,1004.28
2018-07-17T08:43:00.024Z,1004.27
2018-07-17T08:44:07.819Z,1004.28
2018-07-17T08:45:10.450Z,1004.27
2018-07-17T08:46:21.657Z,1004.32
2018-07-17T08:48:43.511Z,1004.30
2018-07-17T08:49:36.511Z,1004.31
2018-07-17T08:52:48.826Z,1004.28
2018-07-17T08:53:58.266Z,1004.33
2018-07-17T08:55:05.020Z,1004.35
2018-07-17T08:56:13.525Z,1004.40
2018-07-17T08:57:19.513Z,1004.36
2018-07-17T08:58:17.532Z,1004.37
2018-07-17T08:59:31.567Z,1004.41
2018-07-17T09:00:40.790Z,1004.39
2018-07-17T09:01:43.059Z,1004.39
2018-07-17T09:02:54.939Z,1004.39
2018-07-17T09:03:44.096Z,1004.42
2018-07-17T09:05:28.333Z,1004.48
2018-07-17T09:05:56.662Z,1004.45
2018-07-17T09:07:11.246Z,1004.47
2018-07-17T09:08:24.880Z,1004.49
2018-07-17T09:10:00.525Z,1004.50
2018-07-17T09:10:41.519Z,1004.52
2018-07-17T09:11:23.050Z,1004.41
2018-07-17T09:13:06.297Z,1004.44
2018-07-17T09:14:09.962Z,1004.46
2018-07-17T09:16:16.737Z,1004.49
2018-07-17T09:17:10.195Z,1004.47
2018-07-17T09:18:26.280Z,1004.51
2018-07-17T09:19:30.452Z,1004.48
2018-07-17T09:22:33.056Z,1004.57
2018-07-17T09:23:31.837Z,1004.55
2018-07-17T09:24:47.202Z,1004.54
2018-07-17T09:25:42.297Z,1004.53
2018-07-17T09:27:00.837Z,1004.57
2018-07-17T09:27:51.421Z,1004.59
2018-07-17T09:28:57.673Z,1004.59
2018-07-17T09:30:12.325Z,1004.56
2018-07-17T09:31:06.391Z,1004.60
2018-07-17T09:33:29.060Z,1004.61
2018-07-17T09:34:17.680Z,1004.61
2018-07-17T09:35:29.254Z,1004.62
2018-07-17T09:36:48.716Z,1004.63
2018-07-17T09:38:42.483Z,1004.66
2018-07-17T09:40:03.379Z,1004.63
2018-07-17T09:40:59.397Z,1004.64
2018-07-17T09:42:03.701Z,1004.63
2018-07-17T09:43:09.555Z,1004.68
2018-07-17T09:44:15.557Z,1004.67
2018-07-17T09:46:28.818Z,1004.61
2018-07-17T09:47:30.052Z,1004.64
2018-07-17T09:48:43.166Z,1004.68
2018-07-17T09:49:42.660Z,1004.61
2018-07-17T09:50:55.971Z,1004.65
2018-07-17T09:52:08.174Z,1004.61
2018-07-17T09:52:57.938Z,1004.62
2018-07-17T09:55:07.987Z,1004.66
2018-07-17T09:57:31.962Z,1004.66
2018-07-17T09:58:29.409Z,1004.68
2018-07-17T09:59:33.204Z,1004.64
2018-07-17T10:00:37.523Z,1004.67
2018-07-17T10:01:46.736Z,1004.70
2018-07-17T10:05:02.526Z,1004.65
2018-07-17T10:06:03.866Z,1004.61
2018-07-17T10:08:19.038Z,1004.66
2018-07-17T10:09:21.515Z,1004.65
2018-07-17T10:11:33.492Z,1004.68
2018-07-17T10:12:31.962Z,1004.66
2018-07-17T10:13:45.693Z,1004.69
2018-07-17T10:14:52.056Z,1004.68
2018-07-17T10:15:55.740Z,1004.70
2018-07-17T10:17:00.764Z,1004.69
2018-07-17T10:18:05.076Z,1004.67
2018-07-17T10:19:22.495Z,1004.72
2018-07-17T10:20:21.454Z,1004.68
2018-07-17T10:21:21.680Z,1004.69
2018-07-17T10:22:33.545Z,1004.74
2018-07-17T10:23:42.994Z,1004.73
2018-07-17T10:25:52.122Z,1004.68
2018-07-17T10:29:05.556Z,1004.74
2018-07-17T10:30:14.165Z,1004.77
2018-07-17T10:31:17.142Z,1004.72
2018-07-17T10:32:19.196Z,1004.74
2018-07-17T10:33:27.804Z,1004.71
2018-07-17T10:34:34.160Z,1004.77
2018-07-17T10:35:45.943Z,1004.77
2018-07-17T10:36:46.872Z,1004.79
2018-07-17T10:37:50.568Z,1004.80
2018-07-17T10:38:55.283Z,1004.82
2018-07-17T10:39:58.874Z,1004.81
2018-07-17T10:41:10.760Z,1004.80
2018-07-17T10:43:20.707Z,1004.86
2018-07-17T10:45:29.837Z,1004.89
2018-07-17T10:46:44.490Z,1004.92
2018-07-17T10:47:34.297Z,1004.91
2018-07-17T10:48:41.527Z,1004.94
2018-07-17T10:51:01.612Z,1004.91
2018-07-17T10:51:58.036Z,1004.94
2018-07-17T10:53:08.997Z,1004.89
2018-07-17T10:54:10.639Z,1004.88
2018-07-17T10:55:18.228Z,1004.89
2018-07-17T10:56:25.096Z,1004.93
2018-07-17T10:58:32.511Z,1004.92
2018-07-17T10:59:35.048Z,1004.92
2018-07-17T11:00:48.270Z,1004.93
2018-07-17T11:01:45.553Z,1004.91
2018-07-17T11:03:11.115Z,1004.96
2018-07-17T11:03:55.350Z,1004.92
2018-07-17T11:05:07.338Z,1004.96
2018-07-17T11:06:07.960Z,1004.91
2018-07-17T11:07:17.900Z,1004.87
2018-07-17T11:09:32.562Z,1004.90
2018-07-17T11:10:28.773Z,1004.90
2018-07-17T11:11:43.973Z,1004.85
2018-07-17T11:12:49.064Z,1004.88
2018-07-17T11:13:53.268Z,1004.84
2018-07-17T11:14:58.293Z,1004.88
2018-07-17T11:16:05.575Z,1004.82
2018-07-17T11:17:10.697Z,1004.81
2018-07-17T11:18:14.594Z,1004.77
2018-07-17T11:21:34.891Z,1004.75
2018-07-17T11:22:33.057Z,1004.68
2018-07-17T11:24:55.290Z,1004.73
2018-07-17T11:25:50.080Z,1004.72
2018-07-17T11:26:53.971Z,1004.69
2018-07-17T11:28:03.911Z,1004.73
2018-07-17T11:29:01.051Z,1004.71
2018-07-17T11:30:06.486Z,1004.68
2018-07-17T11:31:25.742Z,1004.68
2018-07-17T11:32:21.857Z,1004.67
2018-07-17T11:34:34.986Z,1004.63
2018-07-17T11:35:46.149Z,1004.61
2018-07-17T11:36:47.384Z,1004.64
2018-07-17T11:37:56.195Z,1004.65
2018-07-17T11:38:58.763Z,1004.68
2018-07-17T11:40:00.930Z,1004.65
2018-07-17T11:42:17.731Z,1004.63
2018-07-17T11:43:12.979Z,1004.64
2018-07-17T11:44:20.570Z,1004.62
2018-07-17T11:45:39.253Z,1004.56
2018-07-17T11:46:34.039Z,1004.56
2018-07-17T11:48:48.796Z,1004.55
2018-07-17T11:50:01.500Z,1004.49
2018-07-17T11:51:01.203Z,1004.53
2018-07-17T11:52:05.609Z,1004.54
2018-07-17T11:53:11.993Z,1004.54
2018-07-17T11:54:16.067Z,1004.51
2018-07-17T11:55:32.458Z,1004.51
2018-07-17T11:56:35.538Z,1004.53
2018-07-17T11:57:30.936Z,1004.46
2018-07-17T11:58:35.353Z,1004.46
2018-07-17T12:00:58.205Z,1004.44
2018-07-17T12:03:16.950Z,1004.46
2018-07-17T12:05:03.373Z,1004.55
2018-07-17T12:06:10.316Z,1004.55
2018-07-17T12:07:35.100Z,1004.52
2018-07-17T12:08:20.366Z,1004.55
2018-07-17T12:11:49.889Z,1004.57
2018-07-17T12:12:50.690Z,1004.53
2018-07-17T12:14:03.609Z,1004.53
2018-07-17T12:14:59.620Z,1004.53
2018-07-17T12:16:05.674Z,1004.49
2018-07-17T12:17:15.609Z,1004.53
2018-07-17T12:18:28.931Z,1004.48
2018-07-17T12:19:20.547Z,1004.47
2018-07-17T12:20:25.852Z,1004.48
2018-07-17T12:22:49.845Z,1004.52
2018-07-17T12:23:45.451Z,1004.55
2018-07-17T12:25:11.261Z,1004.48
2018-07-17T12:25:52.937Z,1004.54
2018-07-17T12:27:06.580Z,1004.51
2018-07-17T12:27:58.075Z,1004.50
2018-07-17T12:29:09.661Z,1004.47
2018-07-17T12:31:23.804Z,1004.47
2018-07-17T12:32:22.879Z,1004.48
2018-07-17T12:33:36.404Z,1004.47
2018-07-17T12:34:40.719Z,1004.47
2018-07-17T12:35:46.248Z,1004.47
2018-07-17T12:36:50.965Z,1004.42
2018-07-17T12:38:53.744Z,1004.36
2018-07-17T12:40:14.128Z,1004.39
2018-07-17T12:41:20.793Z,1004.36
2018-07-17T12:42:14.765Z,1004.39
2018-07-17T12:43:22.240Z,1004.40
2018-07-17T12:44:22.668Z,1004.41
2018-07-17T12:45:41.102Z,1004.36
2018-07-17T12:46:49.397Z,1004.37
2018-07-17T12:47:45.511Z,1004.41
2018-07-17T12:48:51.464Z,1004.36
2018-07-17T12:49:50.092Z,1004.35
2018-07-17T12:51:10.515Z,1004.39
2018-07-17T12:52:10.114Z,1004.33
2018-07-17T12:53:18.518Z,1004.40
2018-07-17T12:54:18.318Z,1004.35
2018-07-17T12:55:23.036Z,1004.31
2018-07-17T12:56:35.741Z,1004.35
2018-07-17T12:57:34.928Z,1004.31
2018-07-17T12:58:45.175Z,1004.32
2018-07-17T12:59:45.090Z,1004.36
2018-07-17T13:00:57.683Z,1004.41
2018-07-17T13:01:59.539Z,1004.41
2018-07-17T13:03:11.417Z,1004.40
2018-07-17T13:04:09.785Z,1004.31
2018-07-17T13:05:17.372Z,1004.35
2018-07-17T13:06:27.721Z,1004.39
2018-07-17T13:08:23.329Z,1004.37
2018-07-17T13:09:35.829Z,1004.33
2018-07-17T13:10:46.092Z,1004.34
2018-07-17T13:12:51.115Z,1004.33
2018-07-17T13:14:03.505Z,1004.30
2018-07-17T13:15:10.066Z,1004.36
2018-07-17T13:18:21.144Z,1004.37
2018-07-17T13:19:26.580Z,1004.35
2018-07-17T13:20:34.577Z,1004.36
2018-07-17T13:21:40.214Z,1004.36
2018-07-17T13:22:40.226Z,1004.31
2018-07-17T13:24:54.875Z,1004.32
2018-07-17T13:26:01.743Z,1004.32
2018-07-17T13:27:06.052Z,1004.30
2018-07-17T13:28:10.359Z,1004.39
2018-07-17T13:29:07.706Z,1004.30
2018-07-17T13:30:20.817Z,1004.30
2018-07-17T13:31:31.681Z,1004.26
2018-07-17T13:32:31.173Z,1004.28
2018-07-17T13:34:42.151Z,1004.26
2018-07-17T13:36:01.914Z,1004.25
2018-07-17T13:37:04.891Z,1004.21
2018-07-17T13:38:10.633Z,1004.26
2018-07-17T13:39:04.190Z,1004.24
2018-07-17T13:41:17.000Z,1004.26
2018-07-17T13:44:34.636Z,1004.27
2018-07-17T13:45:44.679Z,1004.23
2018-07-17T13:46:51.241Z,1004.17
2018-07-17T13:48:57.497Z,1004.14
2018-07-17T13:50:11.868Z,1004.14
2018-07-17T13:51:09.192Z,1004.19
2018-07-17T13:52:22.712Z,1004.18
2018-07-17T13:53:16.470Z,1004.14
2018-07-17T13:54:19.239Z,1004.16
2018-07-17T13:55:25.225Z,1004.14
2018-07-17T13:56:40.561Z,1004.14
2018-07-17T13:57:33.911Z,1004.10
2018-07-17T13:58:55.620Z,1004.07
2018-07-17T13:59:55.219Z,1004.12
2018-07-17T14:00:54.003Z,1004.09
2018-07-17T14:02:01.170Z,1004.13
2018-07-17T14:03:11.929Z,1004.11
2018-07-17T14:04:24.737Z,1004.10
2018-07-17T14:05:25.876Z,1004.14
2018-07-17T14:07:24.448Z,1004.14
2018-07-17T14:08:38.791Z,1004.10
2018-07-17T14:09:42.690Z,1004.17
2018-07-17T14:10:46.282Z,1004.13
2018-07-17T14:12:12.511Z,1004.12
2018-07-17T14:13:03.089Z,1004.11
2018-07-17T14:15:05.458Z,1004.08
2018-07-17T14:16:21.235Z,1004.06
2018-07-17T14:17:31.657Z,1004.06
2018-07-17T14:18:23.811Z,1004.12
2018-07-17T14:19:30.471Z,1004.11
2018-07-17T14:20:36.723Z,1004.08
2018-07-17T14:21:40.323Z,1004.08
2018-07-17T14:22:46.260Z,1004.13
2018-07-17T14:23:50.162Z,1004.14
2018-07-17T14:24:59.794Z,1004.08
2018-07-17T14:26:08.917Z,1004.08
2018-07-17T14:27:10.662Z,1004.05
2018-07-17T14:28:16.402Z,1004.05
2018-07-17T14:29:18.251Z,1004.13
2018-07-17T14:30:26.964Z,1004.13
2018-07-17T14:31:41.407Z,1004.12
2018-07-17T14:33:40.602Z,1004.14
2018-07-17T14:34:45.523Z,1004.12
2018-07-17T14:35:52.125Z,1004.09
2018-07-17T14:37:11.351Z,1004.12
2018-07-17T14:38:12.478Z,1004.11
2018-07-17T14:39:06.337Z,1004.19
2018-07-17T14:40:19.350Z,1004.21
2018-07-17T14:42:24.586Z,1004.17
2018-07-17T14:43:34.938Z,1004.23
2018-07-17T14:44:39.551Z,1004.18
2018-07-17T14:45:41.706Z,1004.20
2018-07-17T14:47:25.031Z,1004.12
2018-07-17T14:47:56.159Z,1004.14
2018-07-17T14:49:02.006Z,1004.11
2018-07-17T14:50:02.829Z,1004.11
2018-07-17T14:53:30.601Z,1004.05
2018-07-17T14:54:28.970Z,1004.09
2018-07-17T14:55:30.204Z,1004.09
2018-07-17T14:56:30.832Z,1004.12
2018-07-17T14:57:43.734Z,1004.08
2018-07-17T14:58:40.363Z,1004.10
2018-07-17T14:59:51.018Z,1004.08
2018-07-17T15:01:02.085Z,1004.06
2018-07-17T15:02:09.773Z,1004.10
2018-07-17T15:03:11.006Z,1004.11
2018-07-17T15:04:14.290Z,1004.11
2018-07-17T15:05:22.696Z,1004.05
2018-07-17T15:06:31.611Z,1004.11
2018-07-17T15:09:52.332Z,1004.09
2018-07-17T15:10:53.345Z,1004.12
2018-07-17T15:12:01.750Z,1004.14
2018-07-17T15:12:52.654Z,1004.10
2018-07-17T15:14:08.830Z,1004.10
2018-07-17T15:15:11.410Z,1004.16
2018-07-17T15:16:17.342Z,1004.17
2018-07-17T15:18:32.204Z,1004.08
2018-07-17T15:19:46.752Z,1004.07
2018-07-17T15:20:40.717Z,1004.01
2018-07-17T15:21:47.995Z,1004.03
2018-07-17T15:24:03.060Z,1003.99
2018-07-17T15:24:57.845Z,1004.09
2018-07-17T15:26:10.345Z,1004.11
2018-07-17T15:27:09.533Z,1004.09
2018-07-17T15:28:25.310Z,1004.08
2018-07-17T15:29:24.503Z,1004.05
2018-07-17T15:30:30.852Z,1004.07
2018-07-17T15:31:48.369Z,1004.04
2018-07-17T15:33:53.094Z,1004.08
2018-07-17T15:35:06.215Z,1004.06
2018-07-17T15:35:57.306Z,1004.10
2018-07-17T15:37:07.655Z,1004.02
2018-07-17T15:39:17.397Z,1004.08
2018-07-17T15:40:10.752Z,1004.08
2018-07-17T15:41:27.856Z,1004.03